KRAP/RAP METAR and TAF weather

Enter ICAO airport designator
Station Type Date Time Source
KRAP METAR 2019/08/21 02:52 UTC NOAA

KRAP 210252Z 08007KT 10SM CLR 19/13 A3017 RMK AO2 SLP192 T01940133 53005


Station Type Date Time Source
KRAP Decoded METAR 2019/08/21 02:52 UTC NOAA

Station name not available
Aug 20, 2019 - 10:52 PM EDT / 2019.08.21 0252 UTC
Wind: from the E (080 degrees) at 8 MPH (7 KT):0
Visibility: 10 mile(s):0
Sky conditions: clear
Temperature: 66.9 F (19.4 C)
Dew Point: 55.9 F (13.3 C)
Relative Humidity: 67%
Pressure (altimeter): 30.17 in. Hg (1021 hPa)
Pressure tendency: 0.01 inches (0.5 hPa) higher than three hours ago
ob: KRAP 210252Z 08007KT 10SM CLR 19/13 A3017 RMK AO2 SLP192 T01940133 53005
cycle: 3

Station Type Date Time Source
KRAP TAF 2019/08/20 18:22 UTC NOAA

TAF KRAP 201720Z 2018/2118 04016G23KT P6SM FEW100
FM210200 08008KT P6SM SCT250
FM210800 08006KT P6SM BKN050

Example: see airport list